Aérodrome :
LOGIN :

S'inscrire | Disclaimer

   EN    FR    IT 

 










Légende :    VFR   VFR Marginal   IFR   IFR Intensif   IFR Très Intensif
Visi : 
Plafond : 
>= 8 km
>= 3000ft
5 à 8 km
1000 à 3000 ft
1500m à 5 km
500 à 1000 ft
800 à 1500m
200 à 500 ft
< 800m
< 200 ft
Symboles :   Orages  Brouillard  Fortes neiges  Fortes précipitations  Vent > 20 kt
SIGMETs :   Divers  Orages  Givrage  Turbulence  Onde Orograph.  Cendres Volcan.






- Altitude de l'aérodrome : 16 ft
- Code IATA : SDR


LEXJ - Santander Cantabria

DERNIER METAR :
  • 032000Z AUTO 27007KT 230V290 7000 BKN015 19/16 Q1008

METARs EXPIRÉS :
  • 031930Z AUTO 27011KT 240V300 7000 SCT015 BKN027 19/16 Q1008
  • 031900Z AUTO 28013KT 250V320 8000 SCT015 BKN020 19/16 Q1009
  • 031830Z AUTO 29015KT 6000 FEW018 19/16 Q1008
  • 031800Z AUTO 29015KT 260V320 6000 FEW016 20/16 Q1008
  • 031730Z AUTO 29014KT 270V330 7000 SCT016 BKN022 BKN036 20/17 Q1008

TAF TAF LEXJ
Valide du 03 à 15h jusqu'au 04 à 15h UTC


031400Z 0315/0415 28009KT 9999 BKN020 TX22/0315Z TN16/0405Z
TEMPO 0400/0415 3000 RA SHRA SCT030TCU
PROB30
TEMPO 0403/0415 TS SHGR SCT030CB
TEMPO 0406/0415 30015G28KT



MET'MAP, la Météo Aéronautique d'un coup d'oeil ! - Copyright ORBIFLY Décembre 2007 - Disclaimer

ORBIFLY MET'MAP TEAM :

Programmation & Développement : Alexandra Zaïnal
Sur une idée originale de : Baudouin d'Aumeries
Assistance à la programmation : Marc-Olivier Méhu
Soutien technique & logistique : Manuel Goepfert

Contact : metmap@orbifly.com




SOURCES & CREDITS :

   NOAA